createdAt,value
2023-03-28T00:03:23.919Z,81.22
2023-03-28T00:08:23.715Z,82.99
2023-03-28T00:13:23.588Z,82.15
2023-03-28T00:18:23.534Z,82.36
2023-03-28T00:23:23.491Z,82.82
2023-03-28T00:28:23.432Z,83.54
2023-03-28T00:33:23.385Z,83.44
2023-03-28T00:38:23.320Z,82.15
2023-03-28T00:43:23.280Z,83.30
2023-03-28T00:48:23.315Z,82.78
2023-03-28T00:53:23.154Z,83.61
2023-03-28T00:58:23.090Z,83.34
2023-03-28T01:03:23.202Z,83.09
2023-03-28T01:08:23.145Z,83.86
2023-03-28T01:13:22.919Z,84.59
2023-03-28T01:18:23.087Z,84.34
2023-03-28T01:23:22.815Z,83.13
2023-03-28T01:28:22.728Z,83.86
2023-03-28T01:33:22.737Z,84.59
2023-03-28T01:38:22.675Z,84.80
2023-03-28T01:43:22.580Z,83.96
2023-03-28T01:48:22.563Z,82.82
2023-03-28T01:53:22.676Z,84.11
2023-03-28T01:58:22.602Z,84.21
2023-03-28T02:03:22.578Z,83.90
2023-03-28T02:08:22.459Z,84.31
2023-03-28T02:13:22.299Z,84.94
2023-03-28T02:18:22.370Z,84.52
2023-03-28T02:23:22.176Z,81.89
2023-03-28T02:28:22.141Z,82.53
2023-03-28T02:33:22.059Z,83.61
2023-03-28T02:38:22.038Z,85.06
2023-03-28T02:43:22.174Z,85.69
2023-03-28T02:48:21.937Z,86.53
2023-03-28T02:53:21.880Z,85.17
2023-03-28T02:58:21.777Z,84.89
2023-03-28T03:03:21.819Z,85.98
2023-03-28T03:08:21.746Z,85.88
2023-03-28T03:13:22.708Z,86.13
2023-03-28T03:18:21.581Z,86.82
2023-03-28T03:23:29.107Z,86.71
2023-03-28T03:28:21.488Z,86.44
2023-03-28T03:33:21.447Z,86.54
2023-03-28T03:38:21.409Z,87.07
2023-03-28T03:43:21.318Z,86.96
2023-03-28T03:48:21.303Z,87.07
2023-03-28T03:53:21.216Z,86.79
2023-03-28T03:58:21.359Z,87.10
2023-03-28T04:03:25.251Z,87.90
2023-03-28T04:08:21.168Z,88.88
2023-03-28T04:13:21.012Z,90.12
2023-03-28T04:18:20.979Z,89.39
2023-03-28T04:23:20.876Z,88.51
2023-03-28T04:28:20.912Z,88.45
2023-03-28T04:33:20.799Z,88.55
2023-03-28T04:38:21.585Z,88.49
2023-03-28T04:43:20.804Z,87.55
2023-03-28T04:48:20.756Z,88.45
2023-03-28T04:53:20.637Z,87.45
2023-03-28T04:58:20.645Z,88.13
2023-03-28T05:03:20.658Z,87.86
2023-03-28T05:08:20.659Z,87.90
2023-03-28T05:13:20.429Z,88.42
2023-03-28T05:18:20.360Z,88.21
2023-03-28T05:23:20.501Z,88.59
2023-03-28T05:28:20.434Z,88.11
2023-03-28T05:33:21.366Z,88.42
2023-03-28T05:38:20.183Z,88.53
2023-03-28T05:43:20.154Z,87.96
2023-03-28T05:48:20.009Z,88.21
2023-03-28T05:53:19.946Z,88.59
2023-03-28T05:58:20.126Z,88.39
2023-03-28T06:03:20.195Z,88.45
2023-03-28T06:08:19.809Z,88.55
2023-03-28T06:13:19.886Z,88.47
2023-03-28T06:18:19.657Z,88.26
2023-03-28T06:23:19.738Z,88.12
2023-03-28T06:28:19.764Z,87.49
2023-03-28T06:33:19.690Z,87.70
2023-03-28T06:38:19.585Z,87.62
2023-03-28T06:43:19.551Z,87.65
2023-03-28T06:48:19.556Z,87.29
2023-03-28T06:53:19.468Z,85.59
2023-03-28T06:58:19.364Z,84.47
2023-03-28T07:03:21.127Z,83.64
2023-03-28T07:08:19.414Z,83.15
2023-03-28T07:13:19.276Z,81.70
2023-03-28T07:18:19.224Z,80.68
2023-03-28T07:23:19.114Z,80.27
2023-03-28T07:28:20.045Z,79.61
2023-03-28T07:33:24.082Z,79.06
2023-03-28T07:38:20.055Z,78.75
2023-03-28T07:43:20.356Z,78.36
2023-03-28T07:48:18.945Z,77.12
2023-03-28T07:53:18.766Z,76.74
2023-03-28T07:58:18.730Z,76.70
2023-03-28T08:03:18.825Z,75.67
2023-03-28T08:08:18.637Z,75.91
2023-03-28T08:13:18.554Z,74.46
2023-03-28T08:18:18.480Z,74.02
2023-03-28T08:23:18.366Z,72.61
2023-03-28T08:28:18.393Z,69.04
2023-03-28T08:33:18.452Z,67.57
2023-03-28T08:38:18.756Z,68.35
2023-03-28T08:43:28.332Z,66.24
2023-03-28T08:48:18.371Z,66.64
2023-03-28T08:53:21.326Z,67.06
2023-03-28T08:58:17.954Z,66.61
2023-03-28T09:03:17.923Z,65.34
2023-03-28T09:08:19.678Z,65.83
2023-03-28T09:13:17.838Z,65.17
2023-03-28T09:18:17.739Z,64.63
2023-03-28T09:23:17.699Z,62.65
2023-03-28T09:28:17.619Z,61.32
2023-03-28T09:33:17.513Z,60.57
2023-03-28T09:38:17.636Z,58.49
2023-03-28T09:43:17.472Z,58.72
2023-03-28T09:48:19.602Z,58.92
2023-03-28T09:53:17.450Z,57.67
2023-03-28T09:58:17.368Z,59.52
2023-03-28T10:03:17.211Z,57.67
2023-03-28T10:08:17.134Z,58.72
2023-03-28T10:13:17.168Z,60.91
2023-03-28T10:18:17.127Z,58.07
2023-03-28T10:23:16.943Z,57.26
2023-03-28T10:28:16.929Z,56.41
2023-03-28T10:33:16.891Z,51.56
2023-03-28T10:38:16.869Z,54.44
2023-03-28T10:43:16.810Z,52.64
2023-03-28T10:48:16.783Z,55.90
2023-03-28T10:53:16.764Z,52.42
2023-03-28T10:58:16.659Z,54.49
2023-03-28T11:03:16.838Z,55.74
2023-03-28T11:08:16.488Z,54.10
2023-03-28T11:13:16.541Z,51.67
2023-03-28T11:18:16.518Z,53.28
2023-03-28T11:23:16.300Z,52.72
2023-03-28T11:28:16.410Z,50.85
2023-03-28T11:33:16.319Z,47.58
2023-03-28T11:38:16.211Z,50.16
2023-03-28T11:43:16.118Z,50.98
2023-03-28T11:48:16.064Z,49.83
2023-03-28T11:53:18.118Z,46.76
2023-03-28T11:58:15.924Z,46.23
2023-03-28T12:03:15.949Z,48.02
2023-03-28T12:08:15.969Z,46.92
2023-03-28T12:13:15.883Z,48.76
2023-03-28T12:18:15.817Z,47.05
2023-03-28T12:23:15.841Z,45.67
2023-03-28T12:28:15.861Z,46.98
2023-03-28T12:33:15.690Z,45.17
2023-03-28T12:38:15.503Z,46.21
2023-03-28T12:43:15.614Z,45.47
2023-03-28T12:48:16.667Z,44.32
2023-03-28T12:53:15.416Z,41.73
2023-03-28T12:58:15.266Z,43.55
2023-03-28T13:03:15.410Z,45.25
2023-03-28T13:08:15.213Z,41.20
2023-03-28T13:13:15.201Z,45.31
2023-03-28T13:18:15.171Z,43.00
2023-03-28T13:23:14.978Z,45.12
2023-03-28T13:28:15.040Z,44.10
2023-03-28T13:33:14.921Z,45.80
2023-03-28T13:38:14.931Z,45.12
2023-03-28T13:43:14.947Z,43.16
2023-03-28T13:48:15.025Z,42.51
2023-03-28T13:53:14.888Z,44.18
2023-03-28T13:58:16.146Z,43.59
2023-03-28T14:03:14.700Z,45.45
2023-03-28T14:08:14.818Z,45.12
2023-03-28T14:13:14.615Z,43.06
2023-03-28T14:18:14.465Z,43.59
2023-03-28T14:23:14.346Z,41.65
2023-03-28T14:28:14.262Z,42.08
2023-03-28T14:33:14.933Z,43.51
2023-03-28T14:38:14.317Z,42.30
2023-03-28T14:43:14.175Z,42.69
2023-03-28T14:48:14.214Z,43.82
2023-03-28T14:53:14.054Z,43.12
2023-03-28T14:58:13.943Z,42.41
2023-03-28T15:03:13.945Z,43.85
2023-03-28T15:08:13.952Z,43.73
2023-03-28T15:13:13.779Z,42.96
2023-03-28T15:18:13.743Z,43.26
2023-03-28T15:23:13.749Z,42.83
2023-03-28T15:28:13.766Z,44.38
2023-03-28T15:33:13.768Z,44.79
2023-03-28T15:38:13.516Z,45.10
2023-03-28T15:43:13.661Z,46.74
2023-03-28T15:48:13.421Z,43.06
2023-03-28T15:53:13.365Z,44.57
2023-03-28T15:58:13.318Z,47.15
2023-03-28T16:03:13.419Z,44.88
2023-03-28T16:08:13.263Z,44.92
2023-03-28T16:13:13.195Z,44.71
2023-03-28T16:18:13.444Z,45.43
2023-03-28T16:23:14.081Z,44.41
2023-03-28T16:28:13.019Z,47.48
2023-03-28T16:33:12.949Z,44.71
2023-03-28T16:38:12.883Z,44.92
2023-03-28T16:43:12.967Z,45.02
2023-03-28T16:48:12.875Z,45.86
2023-03-28T16:53:12.736Z,45.23
2023-03-28T16:58:12.717Z,46.76
2023-03-28T17:03:12.839Z,47.58
2023-03-28T17:08:12.611Z,46.04
2023-03-28T17:13:12.528Z,46.48
2023-03-28T17:18:12.544Z,47.58
2023-03-28T17:23:12.418Z,46.78
2023-03-28T17:28:12.297Z,46.70
2023-03-28T17:33:12.390Z,46.09
2023-03-28T17:38:12.322Z,46.81
2023-03-28T17:43:12.151Z,49.06
2023-03-28T17:48:12.130Z,47.01
2023-03-28T17:53:12.019Z,48.57
2023-03-28T17:58:11.968Z,49.90
2023-03-28T18:03:12.024Z,48.08
2023-03-28T18:08:11.869Z,52.47
2023-03-28T18:13:11.962Z,48.61
2023-03-28T18:18:11.931Z,50.85
2023-03-28T18:23:11.829Z,49.62
2023-03-28T18:28:11.771Z,51.05
2023-03-28T18:33:11.817Z,50.54
2023-03-28T18:38:11.549Z,52.41
2023-03-28T18:43:11.516Z,52.33
2023-03-28T18:48:11.596Z,52.31
2023-03-28T18:53:11.429Z,50.56
2023-03-28T18:58:11.500Z,50.87
2023-03-28T19:03:11.519Z,51.48
2023-03-28T19:08:11.299Z,50.97
2023-03-28T19:13:11.283Z,55.51
2023-03-28T19:18:11.105Z,58.64
2023-03-28T19:23:12.181Z,58.31
2023-03-28T19:28:11.171Z,58.80
2023-03-28T19:33:12.101Z,62.21
2023-03-28T19:38:10.980Z,63.68
2023-03-28T19:43:10.882Z,65.25
2023-03-28T19:48:10.764Z,69.98
2023-03-28T19:53:10.707Z,72.89
2023-03-28T19:58:10.624Z,74.70
2023-03-28T20:03:10.678Z,75.25
2023-03-28T20:08:10.499Z,77.83
2023-03-28T20:13:10.580Z,77.93
2023-03-28T20:18:10.488Z,78.89
2023-03-28T20:23:10.342Z,78.89
2023-03-28T20:28:10.289Z,79.72
2023-03-28T20:33:10.375Z,81.61
2023-03-28T20:38:10.414Z,80.89
2023-03-28T20:43:10.240Z,81.40
2023-03-28T20:48:10.243Z,82.26
2023-03-28T20:53:10.059Z,83.37
2023-03-28T20:58:09.937Z,84.30
2023-03-28T21:03:09.936Z,83.95
2023-03-28T21:08:09.989Z,83.99
2023-03-28T21:13:09.797Z,83.78
2023-03-28T21:18:09.899Z,84.23
2023-03-28T21:23:09.784Z,84.78
2023-03-28T21:28:09.701Z,84.78
2023-03-28T21:33:09.729Z,85.33
2023-03-28T21:38:09.558Z,85.64
2023-03-28T21:43:09.650Z,84.92
2023-03-28T21:48:09.413Z,84.57
2023-03-28T21:53:09.353Z,84.72
2023-03-28T21:58:09.349Z,84.41
2023-03-28T22:03:09.431Z,83.95
2023-03-28T22:08:09.225Z,83.64
2023-03-28T22:13:09.172Z,83.27
2023-03-28T22:18:09.253Z,83.13
2023-03-28T22:23:09.100Z,84.16
2023-03-28T22:28:09.140Z,84.09
2023-03-28T22:33:09.044Z,83.48
2023-03-28T22:38:09.019Z,83.75
2023-03-28T22:43:08.919Z,83.27
2023-03-28T22:48:08.931Z,83.27
2023-03-28T22:53:08.859Z,83.17
2023-03-28T22:58:08.743Z,82.20
2023-03-28T23:03:08.682Z,83.06
2023-03-28T23:08:08.759Z,83.20
2023-03-28T23:13:08.531Z,82.24
2023-03-28T23:18:08.485Z,83.17
2023-03-28T23:23:08.373Z,81.89
2023-03-28T23:28:08.346Z,80.96
2023-03-28T23:33:08.364Z,81.07
2023-03-28T23:38:08.245Z,81.03
2023-03-28T23:43:08.242Z,81.79
2023-03-28T23:48:08.175Z,80.86
2023-03-28T23:53:08.073Z,81.07
2023-03-28T23:58:08.034Z,80.00
